Time;durP1;ratioP1;P1;durP2;ratioP2;P2;SDS_P1;SDS_P2;PMS_P1;PMS_P2;Temp;Humidity;BMP_temperature;BMP_pressure;BME280_temperature;BME280_humidity;BME280_pressure;Samples;Min_cycle;Max_cycle;Signal;HPM_P1;HPM_P2
2023/12/19 00:03:48;;;;;;;18.00;9.50;;;;;;;5.29;100.00;101047.12;216883;1293;140294;-92
2023/12/19 00:08:48;;;;;;;18.80;9.60;;;;;;;5.28;100.00;101051.84;217521;1294;139335;-90
2023/12/19 00:13:49;;;;;;;19.90;9.00;;;;;;;5.27;100.00;101043.30;216824;1296;140419;-92
2023/12/19 00:18:49;;;;;;;17.80;9.10;;;;;;;5.26;100.00;101045.05;217514;1294;139160;-92
2023/12/19 00:23:50;;;;;;;16.20;8.10;;;;;;;5.26;100.00;101043.25;216968;1295;139994;-92
2023/12/19 00:28:50;;;;;;;16.50;8.20;;;;;;;5.26;100.00;101032.33;217407;1295;139265;-90
2023/12/19 00:33:51;;;;;;;19.60;8.60;;;;;;;5.27;100.00;101010.39;217071;1295;139806;-91
2023/12/19 00:38:51;;;;;;;17.10;8.60;;;;;;;5.27;100.00;101001.02;217441;1295;139012;-92
2023/12/19 00:43:51;;;;;;;16.40;8.40;;;;;;;5.24;100.00;101014.55;217005;1295;140362;-91
2023/12/19 00:48:52;;;;;;;23.80;9.00;;;;;;;5.23;100.00;101025.67;217534;1295;139046;-91
2023/12/19 00:53:52;;;;;;;16.20;8.20;;;;;;;5.21;100.00;101008.27;216813;1295;139812;-93
2023/12/19 00:58:53;;;;;;;13.50;8.00;;;;;;;5.18;100.00;101001.61;217482;1295;138976;-92
2023/12/19 01:03:53;;;;;;;16.80;7.90;;;;;;;5.17;100.00;101005.05;217072;1296;141430;-92
2023/12/19 01:08:53;;;;;;;20.30;7.70;;;;;;;5.17;100.00;101017.05;217514;1294;138906;-92
2023/12/19 01:13:54;;;;;;;14.00;7.70;;;;;;;5.16;100.00;101011.89;216989;1294;140353;-92
2023/12/19 01:18:55;;;;;;;15.20;6.60;;;;;;;5.17;100.00;101023.05;217505;1295;140503;-92
2023/12/19 01:23:55;;;;;;;18.20;7.80;;;;;;;5.18;100.00;101015.48;216924;1295;140606;-93
2023/12/19 01:28:56;;;;;;;19.50;8.00;;;;;;;5.19;100.00;101013.73;217520;1295;139016;-92
2023/12/19 01:33:57;;;;;;;14.30;6.60;;;;;;;5.22;100.00;100995.23;216877;1295;140251;-92
2023/12/19 01:38:57;;;;;;;14.70;7.10;;;;;;;5.26;100.00;100997.86;217442;1296;139410;-92
2023/12/19 01:43:59;;;;;;;16.10;7.30;;;;;;;5.28;100.00;100992.25;216984;1296;140287;-92
2023/12/19 01:49:00;;;;;;;14.30;6.60;;;;;;;5.31;100.00;100988.86;217353;1295;139169;-96
2023/12/19 01:54:04;;;;;;;13.80;6.90;;;;;;;5.34;100.00;100976.59;216964;1296;139970;-91
2023/12/19 01:59:06;;;;;;;14.40;6.60;;;;;;;5.37;100.00;100975.16;217424;1295;139756;-92
2023/12/19 02:04:08;;;;;;;14.80;7.60;;;;;;;5.39;100.00;100980.86;217055;1295;139931;-92
2023/12/19 02:09:08;;;;;;;15.10;7.10;;;;;;;5.41;100.00;100970.96;217313;1296;138694;-92
2023/12/19 02:14:09;;;;;;;13.30;7.60;;;;;;;5.44;100.00;100973.36;216985;1296;139777;-91
2023/12/19 02:19:12;;;;;;;12.60;6.30;;;;;;;5.47;100.00;100952.89;217431;1298;140118;-92
2023/12/19 02:24:13;;;;;;;16.20;7.20;;;;;;;5.50;100.00;100947.79;216942;1295;141239;-91
2023/12/19 02:29:14;;;;;;;13.80;6.40;;;;;;;5.54;100.00;100962.92;217511;1295;139058;-92
2023/12/19 02:34:15;;;;;;;13.10;6.10;;;;;;;5.57;100.00;100966.48;217107;1295;139882;-91
2023/12/19 02:39:15;;;;;;;14.20;6.90;;;;;;;5.59;100.00;100960.16;217437;1296;139401;-90
2023/12/19 02:44:15;;;;;;;13.80;6.80;;;;;;;5.62;100.00;100939.52;216948;1295;141342;-92
2023/12/19 02:49:16;;;;;;;12.80;6.10;;;;;;;5.65;100.00;100936.99;217513;1295;139678;-91
2023/12/19 02:54:16;;;;;;;13.90;6.00;;;;;;;5.68;100.00;100924.45;216951;1295;140139;-94
2023/12/19 02:59:17;;;;;;;13.80;6.30;;;;;;;5.70;100.00;100912.28;217477;1295;139747;-91
2023/12/19 03:04:17;;;;;;;13.10;6.30;;;;;;;5.73;100.00;100919.57;217083;1295;140713;-92
2023/12/19 03:09:18;;;;;;;14.30;6.40;;;;;;;5.75;100.00;100918.96;217192;1296;139218;-92
2023/12/19 03:14:19;;;;;;;10.50;6.00;;;;;;;5.79;100.00;100912.77;216983;1295;139818;-90
2023/12/19 03:19:19;;;;;;;12.20;5.80;;;;;;;5.80;100.00;100919.56;217500;1295;139472;-89
2023/12/19 03:24:21;;;;;;;12.20;5.70;;;;;;;5.82;100.00;100920.11;216894;1295;140815;-90
2023/12/19 03:29:21;;;;;;;12.10;5.50;;;;;;;5.84;100.00;100913.02;217292;1295;140034;-91
2023/12/19 03:34:22;;;;;;;13.70;5.50;;;;;;;5.86;100.00;100911.52;216919;1294;140089;-89
2023/12/19 03:39:23;;;;;;;11.80;5.60;;;;;;;5.89;100.00;100908.73;217355;1296;138778;-91
2023/12/19 03:44:23;;;;;;;12.60;6.20;;;;;;;5.90;100.00;100895.61;216956;1295;139718;-92
2023/12/19 03:49:23;;;;;;;11.20;6.10;;;;;;;5.92;100.00;100895.49;217435;1296;139153;-90
2023/12/19 03:54:24;;;;;;;11.00;5.10;;;;;;;5.94;100.00;100893.23;216963;1296;141855;-91
2023/12/19 03:59:25;;;;;;;9.70;4.80;;;;;;;5.96;100.00;100889.66;217405;1296;139691;-92
2023/12/19 04:04:25;;;;;;;13.10;5.50;;;;;;;5.98;100.00;100898.30;217069;1294;140485;-92
2023/12/19 04:09:26;;;;;;;10.90;5.90;;;;;;;6.00;100.00;100901.44;217331;1295;139509;-91
2023/12/19 04:14:26;;;;;;;11.40;5.90;;;;;;;6.02;100.00;100908.69;216993;1294;139986;-91
2023/12/19 04:19:27;;;;;;;11.20;5.70;;;;;;;6.04;100.00;100898.23;217533;1296;139682;-90
2023/12/19 04:24:28;;;;;;;12.00;5.60;;;;;;;6.04;100.00;100896.26;216970;1295;140978;-91
2023/12/19 04:29:28;;;;;;;13.90;5.80;;;;;;;6.04;100.00;100889.79;217466;1295;139180;-91
2023/12/19 04:34:28;;;;;;;11.50;5.50;;;;;;;6.06;100.00;100887.13;217059;1295;139963;-91
2023/12/19 04:39:29;;;;;;;9.60;5.00;;;;;;;6.07;100.00;100876.52;217374;1295;138913;-91
2023/12/19 04:44:29;;;;;;;8.90;5.20;;;;;;;6.08;100.00;100889.93;216933;1298;140965;-90
2023/12/19 04:49:29;;;;;;;13.10;6.20;;;;;;;6.08;100.00;100892.20;217323;1295;138919;-91
2023/12/19 04:54:30;;;;;;;12.10;6.10;;;;;;;6.08;100.00;100881.02;216954;1296;139552;-92
2023/12/19 04:59:32;;;;;;;13.90;5.90;;;;;;;6.08;100.00;100874.41;217500;1294;139337;-92
2023/12/19 05:04:32;;;;;;;11.60;5.50;;;;;;;6.08;100.00;100879.25;216905;1295;140901;-89
2023/12/19 05:09:32;;;;;;;13.70;6.10;;;;;;;6.09;100.00;100871.14;217506;1296;139442;-91
2023/12/19 05:14:33;;;;;;;12.30;5.80;;;;;;;6.10;100.00;100869.48;216968;1295;139580;-92
2023/12/19 05:19:33;;;;;;;13.30;6.40;;;;;;;6.11;100.00;100889.41;217472;1295;139153;-91
2023/12/19 05:24:34;;;;;;;12.20;6.40;;;;;;;6.11;100.00;100886.52;216747;1298;139627;-92
2023/12/19 05:29:35;;;;;;;13.50;6.40;;;;;;;6.11;100.00;100880.77;217528;1297;139240;-92
2023/12/19 05:34:35;;;;;;;12.90;6.40;;;;;;;6.11;100.00;100877.16;216995;1295;139593;-88
2023/12/19 05:39:36;;;;;;;10.90;5.90;;;;;;;6.11;100.00;100856.79;217620;1298;96353;-91
2023/12/19 05:44:36;;;;;;;11.30;5.70;;;;;;;6.11;100.00;100855.14;216945;1295;139723;-91
2023/12/19 05:49:37;;;;;;;13.20;5.80;;;;;;;6.11;100.00;100847.23;217374;1295;139065;-92
2023/12/19 05:54:37;;;;;;;12.80;6.40;;;;;;;6.10;100.00;100843.46;217012;1295;139927;-92
2023/12/19 05:59:39;;;;;;;11.00;5.60;;;;;;;6.10;100.00;100851.42;217535;1295;139283;-93
2023/12/19 06:04:39;;;;;;;12.50;6.10;;;;;;;6.09;100.00;100845.31;216749;1294;140249;-91
2023/12/19 06:09:40;;;;;;;11.10;5.70;;;;;;;6.10;100.00;100852.20;217416;1296;96860;-91
2023/12/19 06:14:40;;;;;;;11.20;5.50;;;;;;;6.10;100.00;100863.31;216937;1295;140932;-92
2023/12/19 06:19:41;;;;;;;9.80;5.60;;;;;;;6.11;100.00;100868.95;217425;1296;139065;-89
2023/12/19 06:24:42;;;;;;;11.50;6.30;;;;;;;6.13;100.00;100869.73;216668;1296;140202;-89
2023/12/19 06:29:43;;;;;;;13.30;6.20;;;;;;;6.14;100.00;100868.61;217434;1296;139351;-88
2023/12/19 06:34:44;;;;;;;12.50;5.90;;;;;;;6.17;100.00;100865.50;217109;1296;139381;-91
2023/12/19 06:39:44;;;;;;;12.30;6.00;;;;;;;6.20;100.00;100858.88;217245;1295;139840;-92
2023/12/19 06:44:46;;;;;;;12.60;6.30;;;;;;;6.21;100.00;100848.48;217335;1296;139276;-92
2023/12/19 06:49:47;;;;;;;11.80;5.60;;;;;;;6.23;100.00;100852.04;216784;1295;140205;-90
2023/12/19 06:54:47;;;;;;;13.10;5.40;;;;;;;6.25;100.00;100848.44;217476;1296;138861;-93
2023/12/19 06:59:47;;;;;;;11.90;6.30;;;;;;;6.27;100.00;100844.69;216765;1296;140466;-91
2023/12/19 07:04:48;;;;;;;14.40;5.30;;;;;;;6.29;100.00;100844.00;217169;1295;139308;-92
2023/12/19 07:09:48;;;;;;;12.00;6.30;;;;;;;6.31;100.00;100849.54;216967;1297;140344;-91
2023/12/19 07:14:49;;;;;;;11.70;5.90;;;;;;;6.34;100.00;100852.14;217363;1296;139445;-91
2023/12/19 07:19:50;;;;;;;13.80;6.60;;;;;;;6.37;100.00;100840.75;216788;1295;141159;-92
2023/12/19 07:24:50;;;;;;;10.90;5.90;;;;;;;6.40;100.00;100811.80;217364;1295;139580;-91
2023/12/19 07:29:50;;;;;;;15.40;6.60;;;;;;;6.44;100.00;100809.98;216972;1295;140263;-91
2023/12/19 07:34:51;;;;;;;13.60;5.90;;;;;;;6.47;100.00;100816.41;217499;1295;139313;-92
2023/12/19 07:39:51;;;;;;;10.70;5.50;;;;;;;6.51;100.00;100787.79;217055;1295;140397;-90
2023/12/19 07:44:52;;;;;;;12.50;6.60;;;;;;;6.55;100.00;100769.58;217443;1294;139539;-90
2023/12/19 07:49:52;;;;;;;12.10;5.90;;;;;;;6.59;100.00;100771.42;216921;1295;140845;-90
2023/12/19 07:54:52;;;;;;;13.90;6.30;;;;;;;6.63;100.00;100784.06;217375;1295;138970;-90
2023/12/19 07:59:53;;;;;;;12.80;6.50;;;;;;;6.68;100.00;100796.79;216914;1295;140844;-90
2023/12/19 08:04:53;;;;;;;12.80;6.20;;;;;;;6.73;100.00;100798.58;217366;1295;139399;-90
2023/12/19 08:09:54;;;;;;;13.40;6.30;;;;;;;6.78;100.00;100786.35;216866;1295;141000;-90
2023/12/19 08:14:54;;;;;;;16.60;7.20;;;;;;;6.85;100.00;100772.63;217403;1295;138939;-89
2023/12/19 08:19:55;;;;;;;12.80;7.00;;;;;;;6.91;100.00;100781.89;216855;1295;140714;-90
2023/12/19 08:24:55;;;;;;;12.10;6.30;;;;;;;6.95;100.00;100760.39;217274;1296;141177;-91
2023/12/19 08:29:56;;;;;;;16.80;6.60;;;;;;;7.01;100.00;100763.92;216902;1295;140092;-91
2023/12/19 08:34:58;;;;;;;17.60;9.10;;;;;;;7.08;100.00;100750.60;217307;1296;138853;-91
2023/12/19 08:40:02;;;;;;;13.30;6.50;;;;;;;7.13;100.00;100757.01;216906;1296;140399;-90
2023/12/19 08:45:03;;;;;;;14.70;7.30;;;;;;;7.20;100.00;100760.20;217286;1297;139227;-90
2023/12/19 08:50:07;;;;;;;15.80;7.40;;;;;;;7.30;100.00;100777.92;216728;1296;140331;-90
2023/12/19 08:55:12;;;;;;;13.90;6.70;;;;;;;7.39;100.00;100790.32;217286;1295;138896;-90
2023/12/19 09:00:16;;;;;;;12.20;5.80;;;;;;;7.47;100.00;100792.83;216660;1296;140152;-90
2023/12/19 09:05:18;;;;;;;13.80;6.40;;;;;;;7.56;100.00;100782.77;217177;1295;139746;-92
2023/12/19 09:10:22;;;;;;;11.90;6.40;;;;;;;7.65;100.00;100770.66;216964;1295;140078;-90
2023/12/19 09:15:22;;;;;;;15.10;6.50;;;;;;;7.72;100.00;100764.52;217262;1295;138749;-89
2023/12/19 09:20:24;;;;;;;12.10;7.30;;;;;;;7.78;100.00;100736.44;216879;1295;140190;-88
2023/12/19 09:25:27;;;;;;;13.10;7.60;;;;;;;7.88;100.00;100708.90;217473;1295;139013;-90
2023/12/19 09:30:28;;;;;;;13.70;7.40;;;;;;;7.95;100.00;100689.67;216946;1296;209829;-90
2023/12/19 09:35:30;;;;;;;13.90;7.10;;;;;;;8.02;100.00;100693.44;217303;1295;140405;-90
2023/12/19 09:40:31;;;;;;;13.40;7.60;;;;;;;8.12;100.00;100693.14;217052;1295;140064;-89
2023/12/19 09:45:31;;;;;;;14.70;8.10;;;;;;;8.18;100.00;100678.91;217482;1294;139622;-89
2023/12/19 09:50:36;;;;;;;13.90;7.40;;;;;;;8.20;100.00;100678.24;216491;1294;342977;-90
2023/12/19 09:55:43;;;;;;;14.30;7.10;;;;;;;8.19;100.00;100672.13;217354;1295;139364;-90
2023/12/19 10:00:46;;;;;;;18.30;8.20;;;;;;;8.18;100.00;100676.55;216824;1295;143548;-90
2023/12/19 10:05:47;;;;;;;16.90;8.00;;;;;;;8.17;100.00;100672.61;217418;1295;139767;-91
2023/12/19 10:10:55;;;;;;;18.10;9.60;;;;;;;8.12;100.00;100660.10;216898;1295;140126;-89
2023/12/19 10:16:02;;;;;;;13.80;8.70;;;;;;;8.06;100.00;100639.67;217497;1295;112535;-89
2023/12/19 10:21:11;;;;;;;18.50;9.00;;;;;;;8.03;100.00;100625.09;216733;1294;140070;-89
2023/12/19 10:26:11;;;;;;;16.60;9.20;;;;;;;7.97;100.00;100609.15;217400;1294;140206;-89
2023/12/19 10:31:16;;;;;;;16.00;9.00;;;;;;;7.94;100.00;100604.52;216952;1295;140179;-91
2023/12/19 10:36:32;;;;;;;17.00;8.90;;;;;;;7.91;100.00;100597.25;217412;1295;138846;-90
2023/12/19 10:41:33;;;;;;;;;;;;;;;7.90;100.00;100586.82;216877;1294;140554;-89
2023/12/19 10:46:34;;;;;;;16.40;8.90;;;;;;;7.85;100.00;100565.55;217578;1295;96143;-89
2023/12/19 10:51:41;;;;;;;17.90;8.70;;;;;;;7.82;100.00;100561.09;216837;1295;140756;-87
2023/12/19 10:56:42;;;;;;;16.50;9.80;;;;;;;7.79;100.00;100563.77;217392;1295;138842;-87
2023/12/19 11:01:43;;;;;;;18.30;10.10;;;;;;;7.76;100.00;100553.50;216907;1295;139851;-89
2023/12/19 11:06:55;;;;;;;17.10;9.00;;;;;;;7.72;100.00;100534.15;217491;1295;139388;-89
2023/12/19 11:11:57;;;;;;;16.20;9.40;;;;;;;7.67;100.00;100520.36;216654;1295;140363;-88
2023/12/19 11:17:11;;;;;;;20.90;9.50;;;;;;;7.68;100.00;100513.80;217525;1295;139572;-88
2023/12/19 11:22:31;;;;;;;18.10;9.60;;;;;;;7.64;100.00;100499.30;217079;1294;141217;-88
2023/12/19 11:27:39;;;;;;;17.40;8.90;;;;;;;7.63;100.00;100488.10;217251;1295;138827;-89
2023/12/19 11:32:39;;;;;;;17.90;9.70;;;;;;;7.62;100.00;100477.52;216856;1295;140259;-90
2023/12/19 11:37:45;;;;;;;17.10;9.60;;;;;;;7.61;100.00;100456.83;217454;1296;139101;-89
2023/12/19 11:42:46;;;;;;;15.40;8.70;;;;;;;7.59;100.00;100448.63;216891;1295;140647;-90
2023/12/19 11:47:47;;;;;;;18.30;9.30;;;;;;;7.58;100.00;100445.64;217348;1294;138878;-89
2023/12/19 11:52:51;;;;;;;17.00;9.40;;;;;;;7.57;100.00;100444.12;216873;1294;140383;-92
2023/12/19 11:57:51;;;;;;;15.70;8.90;;;;;;;7.55;100.00;100441.20;217280;1294;95804;-90
2023/12/19 12:02:52;;;;;;;17.60;9.90;;;;;;;7.55;100.00;100434.07;216958;1295;140217;-90
2023/12/19 12:07:54;;;;;;;21.30;10.10;;;;;;;7.55;100.00;100426.48;217490;1295;140364;-90
2023/12/19 12:13:02;;;;;;;17.50;9.60;;;;;;;7.53;100.00;100425.04;216734;1294;140073;-90
2023/12/19 12:18:06;;;;;;;18.60;9.30;;;;;;;7.50;100.00;100422.30;217470;1294;139141;-91
2023/12/19 12:23:06;;;;;;;18.10;8.90;;;;;;;7.44;100.00;100411.11;216813;1295;140077;-90
2023/12/19 12:28:11;;;;;;;17.20;8.70;;;;;;;7.37;100.00;100409.55;217636;1295;96029;-90
2023/12/19 12:33:12;;;;;;;19.80;10.00;;;;;;;7.31;100.00;100406.36;216920;1295;139408;-92
2023/12/19 12:38:19;;;;;;;18.70;8.60;;;;;;;7.29;100.00;100399.81;217490;1294;139106;-89
2023/12/19 12:43:33;;;;;;;17.00;9.50;;;;;;;7.26;100.00;100390.73;216803;1295;140220;-89
2023/12/19 12:48:39;;;;;;;21.10;10.20;;;;;;;7.21;100.00;100381.34;217444;1295;138981;-89
2023/12/19 12:53:39;;;;;;;18.60;9.70;;;;;;;7.16;100.00;100374.33;216714;1295;140172;-89
2023/12/19 12:58:40;;;;;;;18.90;9.80;;;;;;;7.10;100.00;100360.49;217499;1295;139099;-90
2023/12/19 13:03:41;;;;;;;20.90;9.90;;;;;;;7.07;100.00;100359.79;216898;1295;139895;-91
2023/12/19 13:08:42;;;;;;;19.30;9.30;;;;;;;7.05;100.00;100353.65;217483;1295;139302;-90
2023/12/19 13:13:43;;;;;;;22.70;9.90;;;;;;;7.01;100.00;100343.10;216860;1295;140223;-90
2023/12/19 13:18:44;;;;;;;20.80;10.20;;;;;;;6.95;100.00;100336.21;217394;1295;139065;-90
2023/12/19 13:23:45;;;;;;;18.20;9.20;;;;;;;6.91;100.00;100332.54;216931;1295;140265;-91
2023/12/19 13:28:46;;;;;;;19.70;9.80;;;;;;;6.89;100.00;100325.98;217251;1296;138989;-89
2023/12/19 13:33:47;;;;;;;21.70;11.00;;;;;;;6.84;100.00;100329.14;217030;1294;140433;-91
2023/12/19 13:38:48;;;;;;;18.60;9.70;;;;;;;6.79;100.00;100333.54;217457;1295;138871;-90
2023/12/19 13:43:49;;;;;;;20.30;9.90;;;;;;;6.76;100.00;100330.05;217015;1294;141141;-90
2023/12/19 13:48:51;;;;;;;21.40;9.80;;;;;;;6.73;100.00;100325.20;217437;1295;139732;-91
2023/12/19 13:53:52;;;;;;;17.60;9.30;;;;;;;6.69;100.00;100320.88;216865;1295;140907;-90
2023/12/19 13:58:52;;;;;;;15.80;9.20;;;;;;;6.65;100.00;100315.25;217515;1296;139440;-90
2023/12/19 14:03:53;;;;;;;20.40;9.10;;;;;;;6.63;100.00;100304.40;217086;1294;139934;-91
2023/12/19 14:08:53;;;;;;;21.80;9.20;;;;;;;6.59;100.00;100297.05;217491;1295;139342;-91
2023/12/19 14:13:54;;;;;;;16.80;8.30;;;;;;;6.54;100.00;100297.38;216991;1295;140004;-91
2023/12/19 14:18:54;;;;;;;15.80;8.40;;;;;;;6.48;100.00;100288.39;217227;1294;139179;-91
2023/12/19 14:23:55;;;;;;;16.20;8.70;;;;;;;6.38;100.00;100286.35;216985;1294;140868;-91
2023/12/19 14:28:57;;;;;;;16.00;8.80;;;;;;;6.32;100.00;100276.05;217343;1295;138919;-90
2023/12/19 14:33:58;;;;;;;12.40;6.40;;;;;;;6.27;100.00;100267.33;216867;1296;140202;-92
2023/12/19 14:38:58;;;;;;;13.50;6.80;;;;;;;6.23;100.00;100271.75;217288;1296;139347;-92
2023/12/19 14:43:58;;;;;;;16.00;7.10;;;;;;;6.18;100.00;100279.03;216978;1295;139783;-92
2023/12/19 17:47:08;;;;;;;25.20;12.00;;;;;;;5.87;100.00;100093.44;217489;1295;111285;-90
2023/12/19 17:52:24;;;;;;;22.80;12.80;;;;;;;5.89;100.00;100094.50;216875;1293;140547;-93
2023/12/19 17:57:30;;;;;;;22.10;12.10;;;;;;;5.90;100.00;100086.98;217589;1293;138998;-92
2023/12/19 18:02:31;;;;;;;23.00;12.60;;;;;;;5.92;100.00;100086.45;216866;1293;140095;-90
2023/12/19 18:07:32;;;;;;;23.70;12.50;;;;;;;5.93;100.00;100076.27;217401;1294;140749;-93
2023/12/19 18:12:33;;;;;;;23.60;12.40;;;;;;;5.95;100.00;100063.67;216812;1292;140174;-92
2023/12/19 18:17:34;;;;;;;23.20;12.60;;;;;;;5.96;100.00;100050.13;217556;1293;95935;-90
2023/12/19 18:22:34;;;;;;;23.20;12.20;;;;;;;5.98;100.00;100047.19;217221;1293;140478;-91
2023/12/19 18:27:35;;;;;;;22.80;12.60;;;;;;;5.99;100.00;100045.50;217544;1293;139020;-90
2023/12/19 18:32:37;;;;;;;22.50;11.80;;;;;;;6.00;100.00;100044.59;217175;1292;140193;-88
2023/12/19 18:37:38;;;;;;;25.90;14.10;;;;;;;6.01;100.00;100049.45;217427;1293;139349;-89
2023/12/19 18:42:38;;;;;;;22.60;13.80;;;;;;;6.00;100.00;100042.89;216987;1293;140884;-91
2023/12/19 18:47:39;;;;;;;21.60;13.90;;;;;;;6.02;100.00;100039.33;217659;1293;96100;-90
2023/12/19 18:52:41;;;;;;;28.80;15.50;;;;;;;6.02;100.00;100042.69;216924;1295;140076;-89
2023/12/19 18:57:44;;;;;;;26.30;14.50;;;;;;;6.04;100.00;100035.94;217524;1293;139260;-91
2023/12/19 19:02:49;;;;;;;23.80;14.00;;;;;;;6.05;100.00;100023.57;217040;1293;140446;-91
2023/12/19 19:07:51;;;;;;;26.70;15.00;;;;;;;6.06;100.00;100010.94;217504;1293;139308;-91
2023/12/19 19:12:53;;;;;;;31.10;17.60;;;;;;;6.08;100.00;99999.27;216887;1293;140611;-95
2023/12/19 19:17:54;;;;;;;31.50;18.00;;;;;;;6.10;100.00;99991.43;217487;1293;97227;-92
2023/12/19 19:22:54;;;;;;;32.90;16.80;;;;;;;6.11;100.00;99983.65;216855;1293;139826;-88
2023/12/19 19:27:57;;;;;;;31.70;17.90;;;;;;;6.13;100.00;99984.23;217663;1293;139420;-93
2023/12/19 19:32:57;;;;;;;26.20;15.40;;;;;;;6.14;100.00;99975.30;216892;1293;140440;-92
2023/12/19 19:38:01;;;;;;;23.50;14.20;;;;;;;6.16;100.00;99973.38;217408;1297;139007;-92
2023/12/19 19:43:03;;;;;;;23.10;14.30;;;;;;;6.19;100.00;99967.50;216805;1293;140123;-91
2023/12/19 19:48:05;;;;;;;22.70;13.40;;;;;;;6.21;100.00;99964.60;217534;1293;107017;-90
2023/12/19 19:53:07;;;;;;;21.10;13.30;;;;;;;6.23;100.00;99961.58;216846;1293;140213;-89
2023/12/19 19:58:09;;;;;;;23.10;13.90;;;;;;;6.25;100.00;99962.25;217365;1293;139636;-88
2023/12/19 20:03:10;;;;;;;22.20;13.60;;;;;;;6.25;100.00;99955.38;217051;1293;140019;-88
2023/12/19 20:08:10;;;;;;;23.70;13.90;;;;;;;6.27;100.00;99954.55;217706;1293;138887;-90
2023/12/19 20:13:20;;;;;;;24.30;14.60;;;;;;;6.29;100.00;99949.52;216996;1293;140276;-91
2023/12/19 20:18:21;;;;;;;22.10;14.10;;;;;;;6.31;100.00;99949.34;217608;1293;138951;-91
2023/12/19 20:23:27;;;;;;;20.70;13.40;;;;;;;6.32;100.00;99949.59;217034;1294;139748;-91
2023/12/19 20:28:28;;;;;;;27.70;14.80;;;;;;;6.33;100.00;99939.62;217404;1296;139726;-90
2023/12/19 20:33:28;;;;;;;22.20;13.50;;;;;;;6.35;100.00;99942.53;216996;1293;140008;-91
2023/12/19 20:38:29;;;;;;;21.30;12.90;;;;;;;6.37;100.00;99934.77;217475;1293;138890;-90
2023/12/19 20:43:30;;;;;;;23.70;13.60;;;;;;;6.38;100.00;99933.16;216831;1293;140701;-89
2023/12/19 20:48:33;;;;;;;20.00;12.90;;;;;;;6.41;100.00;99932.36;217479;1293;140179;-90
2023/12/19 20:53:33;;;;;;;24.10;13.50;;;;;;;6.42;100.00;99922.38;217120;1293;139683;-89
2023/12/19 20:58:36;;;;;;;24.00;14.40;;;;;;;6.43;100.00;99914.05;217479;1293;138818;-92
2023/12/19 21:03:37;;;;;;;18.30;12.10;;;;;;;6.44;100.00;99907.51;216881;1293;140594;-90
2023/12/19 21:08:39;;;;;;;24.40;14.10;;;;;;;6.45;100.00;99909.33;217335;1294;139150;-90
2023/12/19 21:13:40;;;;;;;21.60;12.60;;;;;;;6.46;100.00;99902.14;216856;1293;140013;-91
2023/12/19 21:18:41;;;;;;;25.20;13.10;;;;;;;6.48;100.00;99894.30;217429;1293;138925;-91
2023/12/19 21:23:41;;;;;;;21.00;12.50;;;;;;;6.50;100.00;99889.27;216977;1293;140400;-89
2023/12/19 21:28:46;;;;;;;23.30;12.00;;;;;;;6.53;100.00;99891.42;217603;1293;139876;-90
2023/12/19 21:34:25;;;;;;;17.80;11.10;;;;;;;6.55;100.00;99892.39;216844;1293;139756;-93
2023/12/19 21:39:26;;;;;;;17.90;11.10;;;;;;;6.55;100.00;99892.48;217002;1296;139406;-90
2023/12/19 21:44:27;;;;;;;16.70;10.90;;;;;;;6.56;100.00;99885.80;216821;1293;140239;-91
2023/12/19 21:49:30;;;;;;;16.90;11.10;;;;;;;6.58;100.00;99880.89;217224;1293;226904;-91
2023/12/19 21:54:30;;;;;;;17.20;10.30;;;;;;;6.59;100.00;99872.48;216930;1294;139905;-92
2023/12/19 21:59:31;;;;;;;17.90;10.20;;;;;;;6.61;100.00;99863.91;217490;1293;112368;-93
2023/12/19 22:04:32;;;;;;;14.90;9.80;;;;;;;6.62;100.00;99857.93;216985;1293;140046;-90
2023/12/19 22:09:33;;;;;;;21.30;10.30;;;;;;;6.62;100.00;99854.11;217429;1293;139331;-91
2023/12/19 22:14:33;;;;;;;15.50;9.50;;;;;;;6.64;100.00;99843.44;216903;1293;140251;-89
2023/12/19 22:19:34;;;;;;;15.20;9.10;;;;;;;6.67;100.00;99839.35;217502;1293;139494;-89
2023/12/19 22:24:36;;;;;;;14.30;9.10;;;;;;;6.68;100.00;99834.28;216952;1293;140355;-89
2023/12/19 22:29:37;;;;;;;12.60;8.00;;;;;;;6.68;100.00;99835.30;217525;1293;112080;-89
2023/12/19 22:34:38;;;;;;;15.60;9.20;;;;;;;6.69;100.00;99828.13;217127;1293;139494;-89
2023/12/19 22:39:38;;;;;;;15.40;8.80;;;;;;;6.69;100.00;99824.31;217362;1293;139137;-88
2023/12/19 22:44:40;;;;;;;12.50;7.90;;;;;;;6.69;100.00;99826.34;216899;1293;139560;-87
2023/12/19 22:49:40;;;;;;;13.90;7.00;;;;;;;6.69;100.00;99824.70;217456;1293;138970;-88
2023/12/19 22:54:41;;;;;;;13.20;7.50;;;;;;;6.70;100.00;99824.77;217133;1293;140031;-91
2023/12/19 22:59:45;;;;;;;12.10;6.70;;;;;;;6.71;100.00;99819.02;217621;1293;95970;-91
2023/12/19 23:04:48;;;;;;;12.40;7.50;;;;;;;6.71;100.00;99819.02;217142;1293;140906;-89
2023/12/19 23:09:49;;;;;;;12.10;7.00;;;;;;;6.72;100.00;99819.03;217019;1293;140315;-90
2023/12/19 23:14:49;;;;;;;13.00;7.20;;;;;;;6.72;100.00;99816.85;217517;1293;139355;-91
2023/12/19 23:19:49;;;;;;;10.60;6.10;;;;;;;6.72;100.00;99815.20;217050;1293;139976;-90
2023/12/19 23:24:50;;;;;;;10.70;5.90;;;;;;;6.72;100.00;99815.83;217622;1296;138805;-90
2023/12/19 23:29:50;;;;;;;10.40;5.50;;;;;;;6.71;100.00;99814.73;217195;1293;139839;-89
2023/12/19 23:34:54;;;;;;;10.50;5.80;;;;;;;6.71;100.00;99814.95;217591;1293;138642;-93
2023/12/19 23:39:54;;;;;;;11.80;6.40;;;;;;;6.71;100.00;99808.33;216995;1293;140365;-92
2023/12/19 23:44:55;;;;;;;11.00;6.30;;;;;;;6.72;100.00;99807.39;217601;1293;138919;-92
2023/12/19 23:49:55;;;;;;;13.20;6.10;;;;;;;6.72;100.00;99799.34;216897;1293;139964;-91
2023/12/19 23:54:55;;;;;;;10.60;5.90;;;;;;;6.71;100.00;99797.14;217635;1293;139381;-90
2023/12/19 23:59:56;;;;;;;9.40;4.70;;;;;;;6.72;100.00;99803.34;217086;1293;140745;-88
